Time;durP1;ratioP1;P1;durP2;ratioP2;P2;SDS_P1;SDS_P2;PMS_P1;PMS_P2;Temp;Humidity;BMP_temperature;BMP_pressure;BME280_temperature;BME280_humidity;BME280_pressure;Samples;Min_cycle;Max_cycle;Signal;HPM_P1;HPM_P2
2023/07/07 00:00:30;;;;;;;18.02;12.35;;;15.20;93.20;;;;;;5037536;28;20205;-93
2023/07/07 00:02:57;;;;;;;17.23;11.68;;;15.20;93.40;;;;;;5089706;28;20198;-94
2023/07/07 00:08:06;;;;;;;8.35;6.25;;;15.10;93.50;;;;;;5083427;28;20193;-94
2023/07/07 00:10:33;;;;;;;13.35;8.95;;;15.10;93.60;;;;;;5047962;28;20269;-93
2023/07/07 00:13:00;;;;;;;9.82;6.93;;;15.10;93.50;;;;;;5051306;28;20204;-94
2023/07/07 00:18:09;;;;;;;7.43;6.10;;;15.00;93.70;;;;;;5067449;28;20228;-93
2023/07/07 00:23:18;;;;;;;8.93;6.00;;;14.90;93.70;;;;;;5075737;28;20203;-94
2023/07/07 00:28:26;;;;;;;12.52;8.57;;;14.90;93.90;;;;;;5060721;28;20211;-94
2023/07/07 00:30:54;;;;;;;9.07;6.95;;;14.90;94.20;;;;;;5081964;28;20208;-93
2023/07/07 00:33:20;;;;;;;9.18;6.50;;;14.90;94.20;;;;;;5085661;28;20201;-93
2023/07/07 00:38:56;;;;;;;6.20;5.60;;;14.90;94.20;;;;;;5068366;28;20211;-93
2023/07/07 00:41:22;;;;;;;8.38;6.05;;;14.80;94.40;;;;;;5067986;28;20200;-93
2023/07/07 00:44:01;;;;;;;6.95;5.70;;;14.80;94.60;;;;;;5086681;28;20205;-93
2023/07/07 00:46:28;;;;;;;13.85;10.27;;;14.80;94.40;;;;;;5082774;28;20240;-93
2023/07/07 00:54:33;;;;;;;12.52;6.40;;;14.70;94.60;;;;;;5063858;28;20211;-93
2023/07/07 00:57:03;;;;;;;9.65;7.25;;;14.70;94.80;;;;;;5079632;28;20663;-92
2023/07/07 00:59:34;;;;;;;8.98;6.00;;;14.60;94.60;;;;;;5051038;28;20193;-93
2023/07/07 01:02:04;;;;;;;11.23;6.47;;;14.70;94.30;;;;;;5077793;28;20204;-93
2023/07/07 01:04:31;;;;;;;6.72;5.55;;;14.70;94.30;;;;;;5060840;28;20192;-94
2023/07/07 01:10:07;;;;;;;6.35;5.35;;;14.60;94.20;;;;;;5063229;28;20281;-94
2023/07/07 01:12:35;;;;;;;7.13;5.72;;;14.50;94.40;;;;;;5085415;28;20193;-93
2023/07/07 01:17:58;;;;;;;7.00;5.65;;;14.40;94.70;;;;;;5069737;28;20711;-92
2023/07/07 01:20:33;;;;;;;8.43;6.53;;;14.30;95.10;;;;;;5062695;28;20213;-93
2023/07/07 01:26:51;;;;;;;9.82;6.68;;;14.30;95.60;;;;;;4988050;28;20283;-93
2023/07/07 01:30:02;;;;;;;10.93;8.55;;;14.30;95.90;;;;;;4969569;28;20281;-92
2023/07/07 01:35:20;;;;;;;6.47;5.40;;;14.30;95.60;;;;;;5040112;28;20242;-93
2023/07/07 01:40:42;;;;;;;8.38;5.85;;;14.30;95.10;;;;;;5051666;28;20209;-93
2023/07/07 01:46:01;;;;;;;6.55;5.40;;;14.10;95.70;;;;;;5056052;28;20277;-93
2023/07/07 01:54:26;;;;;;;8.55;5.50;;;14.00;96.30;;;;;;5083544;28;20285;-93
2023/07/07 01:56:55;;;;;;;6.00;5.22;;;14.00;96.70;;;;;;5061588;28;20255;-94
2023/07/07 01:59:24;;;;;;;10.68;6.43;;;14.00;96.70;;;;;;5082241;28;20188;-93
2023/07/07 02:01:51;;;;;;;7.43;5.10;;;14.00;96.50;;;;;;5073943;28;20552;-93
2023/07/07 02:07:00;;;;;;;6.30;5.20;;;14.00;95.90;;;;;;5048188;28;20217;-93
2023/07/07 02:09:27;;;;;;;10.27;7.00;;;13.90;95.90;;;;;;5090023;28;20195;-93
2023/07/07 02:11:54;;;;;;;7.80;4.78;;;14.00;95.50;;;;;;5088129;28;20204;-92
2023/07/07 02:14:21;;;;;;;7.93;5.38;;;14.00;95.40;;;;;;5053580;28;20205;-93
2023/07/07 02:16:49;;;;;;;8.52;5.28;;;14.00;95.30;;;;;;5087080;28;20197;-93
2023/07/07 02:19:16;;;;;;;7.60;5.50;;;14.00;95.20;;;;;;5071186;28;20222;-92
2023/07/07 02:24:30;;;;;;;7.20;4.95;;;14.00;95.30;;;;;;5086865;28;20281;-93
2023/07/07 02:26:57;;;;;;;7.00;5.50;;;14.00;95.30;;;;;;5074227;28;20229;-93
2023/07/07 02:29:24;;;;;;;6.28;5.25;;;14.00;95.30;;;;;;5089988;28;20684;-94
2023/07/07 02:31:51;;;;;;;9.20;6.90;;;14.00;95.00;;;;;;5076322;28;20205;-93
2023/07/07 02:34:18;;;;;;;8.38;5.25;;;13.90;95.10;;;;;;5057718;28;20588;-92
2023/07/07 02:39:27;;;;;;;6.55;4.90;;;13.80;95.40;;;;;;5076031;28;20203;-93
2023/07/07 02:41:54;;;;;;;6.20;5.03;;;13.70;95.60;;;;;;5069996;28;20204;-93
2023/07/07 02:44:21;;;;;;;7.53;5.30;;;13.70;95.80;;;;;;5095683;28;20208;-92
2023/07/07 02:46:49;;;;;;;6.40;4.72;;;13.60;96.30;;;;;;5094113;28;20217;-93
2023/07/07 02:49:17;;;;;;;6.78;4.88;;;13.60;96.60;;;;;;5091038;28;20205;-93
2023/07/07 02:54:27;;;;;;;6.40;5.10;;;13.50;96.50;;;;;;5074603;28;20197;-92
2023/07/07 02:56:54;;;;;;;6.97;5.28;;;13.50;96.50;;;;;;5072986;28;20208;-93
2023/07/07 02:59:22;;;;;;;7.18;5.53;;;13.50;96.50;;;;;;5086987;28;20212;-93
2023/07/07 03:01:49;;;;;;;9.77;6.05;;;13.50;96.50;;;;;;5084026;28;20215;-93
2023/07/07 03:04:16;;;;;;;7.47;5.82;;;13.50;96.50;;;;;;5086394;28;20255;-94
2023/07/07 03:06:43;;;;;;;7.38;5.60;;;13.50;96.50;;;;;;5051945;28;20220;-93
2023/07/07 03:09:11;;;;;;;7.00;5.10;;;13.50;96.50;;;;;;5081932;28;20193;-93
2023/07/07 03:11:39;;;;;;;6.32;4.60;;;13.40;96.50;;;;;;5083106;28;20317;-93
2023/07/07 03:16:51;;;;;;;7.93;5.22;;;13.30;96.50;;;;;;5083339;28;20200;-93
2023/07/07 03:21:59;;;;;;;8.70;5.07;;;13.30;96.90;;;;;;5056335;28;20206;-93
2023/07/07 03:27:08;;;;;;;5.60;4.93;;;13.40;96.50;;;;;;5080019;28;20228;-94
2023/07/07 03:29:35;;;;;;;7.32;4.95;;;13.30;96.50;;;;;;5086314;28;20194;-94
2023/07/07 03:32:03;;;;;;;7.20;5.63;;;13.20;96.50;;;;;;5071951;28;20209;-93
2023/07/07 03:34:30;;;;;;;7.47;5.00;;;13.30;96.90;;;;;;5075821;28;20205;-93
2023/07/07 03:36:56;;;;;;;7.13;5.47;;;13.30;96.50;;;;;;5084200;28;20195;-92
2023/07/07 03:39:24;;;;;;;6.30;4.35;;;13.30;96.50;;;;;;5088600;28;20193;-93
2023/07/07 03:45:02;;;;;;;7.32;5.07;;;13.20;96.50;;;;;;5072616;28;20208;-93
2023/07/07 03:47:29;;;;;;;7.00;4.78;;;13.20;96.90;;;;;;5086512;28;20220;-93
2023/07/07 03:49:56;;;;;;;6.63;4.97;;;13.20;96.90;;;;;;5079713;28;20201;-93
2023/07/07 03:52:23;;;;;;;5.13;4.57;;;13.20;97.20;;;;;;5067176;28;20197;-94
2023/07/07 03:54:50;;;;;;;9.85;5.93;;;13.20;97.20;;;;;;5072518;28;20211;-94
2023/07/07 04:00:00;;;;;;;6.65;5.20;;;13.20;97.40;;;;;;5077500;28;20223;-94
2023/07/07 04:02:28;;;;;;;7.53;6.00;;;13.30;97.60;;;;;;5082792;28;20197;-93
2023/07/07 04:04:55;;;;;;;8.00;5.85;;;13.50;97.40;;;;;;5087736;28;20624;-94
2023/07/07 04:07:22;;;;;;;7.03;5.07;;;13.50;96.70;;;;;;5091989;28;20217;-94
2023/07/07 04:09:49;;;;;;;7.60;6.05;;;13.50;96.60;;;;;;5069001;28;20568;-94
2023/07/07 04:12:16;;;;;;;6.55;5.40;;;13.60;96.60;;;;;;5063408;28;20188;-93
2023/07/07 04:17:25;;;;;;;7.45;5.38;;;13.80;96.20;;;;;;5069710;28;20231;-94
2023/07/07 04:19:52;;;;;;;18.98;12.55;;;13.80;96.30;;;;;;5084180;28;20228;-94
2023/07/07 04:22:19;;;;;;;8.32;6.18;;;14.20;95.00;;;;;;5079254;28;20579;-92
2023/07/07 04:27:27;;;;;;;11.55;6.78;;;15.10;93.60;;;;;;5076536;28;20216;-93
2023/07/07 04:32:36;;;;;;;8.43;5.53;;;15.70;90.80;;;;;;5073469;28;20197;-94
2023/07/07 04:35:03;;;;;;;6.63;5.20;;;15.70;90.80;;;;;;5083019;28;20195;-94
2023/07/07 04:40:12;;;;;;;24.10;17.45;;;15.70;90.40;;;;;;5044931;28;20201;-94
2023/07/07 04:42:41;;;;;;;52.80;42.17;;;15.70;90.40;;;;;;5061723;28;20201;-95
2023/07/07 04:53:53;;;;;;;6.97;5.97;;;15.50;90.50;;;;;;5057159;28;20205;-94
2023/07/07 04:56:22;;;;;;;7.63;4.80;;;15.50;90.40;;;;;;5090596;28;20196;-90
2023/07/07 04:58:50;;;;;;;9.38;5.50;;;15.40;90.20;;;;;;5081217;28;20201;-92
2023/07/07 05:01:22;;;;;;;9.63;5.55;;;15.30;90.60;;;;;;5083448;28;20193;-93
2023/07/07 05:03:53;;;;;;;7.35;5.05;;;15.20;90.60;;;;;;5071777;28;20201;-94
2023/07/07 05:06:20;;;;;;;11.30;6.65;;;15.30;90.90;;;;;;5073310;28;20861;-90
2023/07/07 05:11:31;;;;;;;25.15;14.30;;;15.30;91.50;;;;;;5082161;28;20201;-94
2023/07/07 05:13:58;;;;;;;42.42;24.85;;;15.50;90.70;;;;;;5088941;28;20212;-93
2023/07/07 05:16:38;;;;;;;10.95;6.70;;;15.70;90.00;;;;;;5084045;28;20204;-93
2023/07/07 05:19:05;;;;;;;9.63;5.90;;;15.80;89.90;;;;;;5082115;28;20231;-94
2023/07/07 05:21:32;;;;;;;5.82;4.75;;;15.80;89.20;;;;;;5081600;28;20192;-95
2023/07/07 05:23:59;;;;;;;35.00;25.55;;;15.90;87.30;;;;;;5128269;22;20245;-93
2023/07/07 05:36:58;;;;;;;15.20;11.63;;;16.50;84.90;;;;;;5050240;28;20214;-92
2023/07/07 05:39:25;;;;;;;15.55;13.73;;;16.80;84.20;;;;;;5046901;28;20197;-91
2023/07/07 05:41:52;;;;;;;5.80;4.53;;;17.30;80.90;;;;;;5046156;28;20197;-92
2023/07/07 05:44:19;;;;;;;11.23;6.45;;;17.70;75.20;;;;;;5051555;28;20700;-91
2023/07/07 05:46:45;;;;;;;12.60;9.63;;;18.10;71.60;;;;;;5062213;28;20201;-91
2023/07/07 05:49:13;;;;;;;7.55;4.50;;;18.50;65.30;;;;;;5048375;28;20204;-91
2023/07/07 05:54:22;;;;;;;6.97;4.78;;;19.10;59.20;;;;;;5067020;28;20197;-92
2023/07/07 05:56:50;;;;;;;6.85;4.82;;;19.40;55.30;;;;;;5069795;28;20656;-91
2023/07/07 05:59:17;;;;;;;10.88;6.97;;;19.50;55.20;;;;;;5050836;28;20202;-92
2023/07/07 06:01:44;;;;;;;5.95;5.30;;;19.40;53.20;;;;;;5071579;28;20255;-93
2023/07/07 06:04:10;;;;;;;7.93;5.28;;;19.20;55.20;;;;;;5070310;28;20205;-92
2023/07/07 06:06:39;;;;;;;7.07;4.40;;;18.90;54.90;;;;;;5049712;28;20197;-92
2023/07/07 06:09:07;;;;;;;10.07;4.82;;;18.50;55.20;;;;;;5054921;28;20221;-91
2023/07/07 06:11:35;;;;;;;5.57;4.95;;;18.40;57.40;;;;;;5064109;28;20201;-92
2023/07/07 06:14:01;;;;;;;8.98;5.20;;;18.30;58.80;;;;;;5074030;28;20208;-92
2023/07/07 06:16:28;;;;;;;8.85;4.63;;;18.30;60.90;;;;;;5076244;28;20200;-90
2023/07/07 06:18:55;;;;;;;8.82;5.30;;;18.30;58.10;;;;;;5059075;28;20217;-92
2023/07/07 06:21:22;;;;;;;7.47;4.40;;;18.30;57.60;;;;;;5042576;28;20634;-90
2023/07/07 06:23:49;;;;;;;4.57;4.10;;;18.40;58.40;;;;;;5061303;28;20202;-91
2023/07/07 06:28:58;;;;;;;6.32;4.60;;;18.60;57.60;;;;;;5063232;28;20576;-92
2023/07/07 06:31:27;;;;;;;5.05;4.07;;;18.50;54.60;;;;;;5069721;28;20194;-91
2023/07/07 06:33:54;;;;;;;6.43;4.60;;;18.60;55.50;;;;;;5066480;28;20202;-88
2023/07/07 06:36:21;;;;;;;4.90;4.35;;;18.70;54.70;;;;;;5073176;28;20193;-91
2023/07/07 06:38:48;;;;;;;5.38;4.38;;;18.80;54.80;;;;;;5067771;28;20201;-92
2023/07/07 06:44:01;;;;;;;4.53;3.90;;;19.00;53.80;;;;;;5059027;28;20522;-92
2023/07/07 06:46:57;;;;;;;6.22;4.47;;;19.20;49.60;;;;;;5058771;28;20182;-92
2023/07/07 06:56:17;;;;;;;6.53;4.38;;;19.50;49.20;;;;;;4982176;28;20704;-95
2023/07/07 06:58:46;;;;;;;8.40;4.65;;;19.50;50.50;;;;;;4981420;28;20668;-92
2023/07/07 07:01:13;;;;;;;5.60;4.55;;;19.50;47.00;;;;;;4956161;29;20241;-94
2023/07/07 07:03:42;;;;;;;4.28;3.88;;;19.70;47.70;;;;;;4959308;28;20729;-94
2023/07/07 07:06:09;;;;;;;5.55;4.55;;;19.80;48.00;;;;;;4979861;28;20266;-94
2023/07/07 07:08:36;;;;;;;7.45;4.95;;;20.10;45.40;;;;;;5065684;28;20244;-94
2023/07/07 07:11:07;;;;;;;5.35;4.70;;;20.30;46.50;;;;;;5065464;28;20208;-93
2023/07/07 07:13:54;;;;;;;8.20;4.60;;;20.60;43.80;;;;;;5030664;28;20240;-91
2023/07/07 07:16:20;;;;;;;6.53;4.18;;;22.50;34.10;;;;;;5045818;28;20544;-90
2023/07/07 07:18:47;;;;;;;6.78;4.20;;;24.20;26.40;;;;;;5079834;28;20235;-91
2023/07/07 07:21:15;;;;;;;5.90;4.57;;;24.90;20.30;;;;;;5072554;28;20198;-89
2023/07/07 07:23:42;;;;;;;5.78;4.55;;;24.40;20.10;;;;;;5074137;28;20217;-90
2023/07/07 07:26:09;;;;;;;5.05;4.50;;;24.00;20.90;;;;;;5073158;28;20254;-90
2023/07/07 07:28:36;;;;;;;6.70;4.30;;;23.70;21.40;;;;;;5033064;28;20218;-91
2023/07/07 07:31:05;;;;;;;4.57;4.18;;;23.20;23.20;;;;;;5053254;28;20212;-90
2023/07/07 07:33:32;;;;;;;5.43;4.72;;;22.90;24.20;;;;;;5069156;28;20725;-90
2023/07/07 07:35:59;;;;;;;6.78;4.97;;;22.80;24.10;;;;;;5045753;28;20270;-90
2023/07/07 07:38:26;;;;;;;6.20;4.93;;;22.70;23.60;;;;;;5074040;28;20212;-92
2023/07/07 07:40:54;;;;;;;5.40;4.63;;;22.60;25.20;;;;;;5044919;28;20202;-89
2023/07/07 07:43:21;;;;;;;6.22;4.93;;;22.50;24.70;;;;;;5041187;28;20209;-89
2023/07/07 07:45:48;;;;;;;6.72;4.70;;;22.50;24.30;;;;;;5044081;28;20251;-90
2023/07/07 07:48:17;;;;;;;5.40;4.35;;;22.40;25.90;;;;;;5023109;28;20272;-90
2023/07/07 07:50:44;;;;;;;7.57;4.85;;;22.50;26.00;;;;;;5051145;28;20254;-90
2023/07/07 07:53:11;;;;;;;7.05;4.60;;;22.60;25.10;;;;;;5052737;28;20208;-89
2023/07/07 07:55:38;;;;;;;5.93;4.75;;;22.70;25.40;;;;;;5067260;28;20206;-90
2023/07/07 07:58:04;;;;;;;6.13;4.55;;;22.90;22.70;;;;;;5053710;28;20650;-89
2023/07/07 08:00:31;;;;;;;6.28;4.93;;;23.20;22.80;;;;;;5058908;28;20204;-90
2023/07/07 08:02:58;;;;;;;6.28;4.38;;;23.20;21.80;;;;;;5074130;28;20208;-89
2023/07/07 08:08:13;;;;;;;5.75;4.70;;;23.60;18.40;;;;;;5066102;28;20228;-90
2023/07/07 08:10:40;;;;;;;6.70;4.93;;;23.50;19.50;;;;;;5066516;28;20194;-90
2023/07/07 08:13:07;;;;;;;4.90;4.30;;;23.80;18.10;;;;;;5065203;28;20802;-90
2023/07/07 08:15:34;;;;;;;4.70;4.03;;;23.80;19.00;;;;;;5063221;28;20241;-90
2023/07/07 08:18:01;;;;;;;6.38;4.40;;;24.20;16.80;;;;;;5068560;28;20232;-91
2023/07/07 08:23:10;;;;;;;9.13;4.80;;;24.70;14.90;;;;;;5052469;28;20197;-88
2023/07/07 08:25:37;;;;;;;5.72;4.32;;;25.60;14.40;;;;;;5064213;28;20201;-90
2023/07/07 08:28:05;;;;;;;7.20;4.65;;;27.20;12.40;;;;;;5057778;28;20270;-89
2023/07/07 08:30:32;;;;;;;6.03;5.03;;;29.00;8.10;;;;;;5030949;28;20209;-91
2023/07/07 08:32:59;;;;;;;6.47;4.55;;;29.00;7.20;;;;;;5054171;28;20243;-91
2023/07/07 08:35:27;;;;;;;5.93;5.32;;;30.20;6.30;;;;;;5043734;28;20833;-91
2023/07/07 08:37:55;;;;;;;6.53;5.05;;;31.10;4.10;;;;;;5051267;28;20235;-91
2023/07/07 08:43:06;;;;;;;5.90;5.30;;;32.80;1.00;;;;;;5066786;28;20620;-91
2023/07/07 08:45:34;;;;;;;7.78;5.80;;;32.70;1.00;;;;;;5059167;28;20205;-91
2023/07/07 08:48:17;;;;;;;5.43;5.03;;;32.70;1.00;;;;;;5050522;28;20225;-91
2023/07/07 08:50:50;;;;;;;5.38;4.97;;;32.10;1.70;;;;;;5061927;28;20204;-91
2023/07/07 08:53:58;;;;;;;6.00;5.50;;;33.20;1.00;;;;;;5046361;28;20197;-91
2023/07/07 09:21:24;;;;;;;6.75;6.15;;;34.30;1.00;;;;;;5048372;28;20213;-95
2023/07/07 09:23:57;;;;;;;6.20;5.70;;;33.70;1.00;;;;;;5063186;28;20208;-93
2023/07/07 09:26:30;;;;;;;6.82;6.18;;;33.40;1.00;;;;;;5035608;28;20201;-95
2023/07/07 09:28:59;;;;;;;7.13;6.40;;;34.60;1.00;;;;;;5075474;28;20209;-95
2023/07/07 09:56:02;;;;;;;8.02;7.22;;;34.00;1.00;;;;;;4953389;28;20208;-96
2023/07/07 10:08:26;;;;;;;7.68;7.07;;;32.90;1.00;;;;;;5019618;28;20254;-94
2023/07/07 10:13:44;;;;;;;8.40;7.70;;;33.40;1.00;;;;;;5026035;28;20198;-92
2023/07/07 10:22:53;;;;;;;8.02;7.15;;;33.70;1.00;;;;;;5027547;28;20203;-93
2023/07/07 10:26:24;;;;;;;;;;;;;;;;;;;;;
2023/07/07 10:29:07;;;;;;;7.72;7.13;;;33.20;1.00;;;;;;5039786;28;20210;-93
2023/07/07 11:08:06;;;;;;;7.88;7.13;;;31.70;1.00;;;;;;5132672;23;20223;-93
2023/07/07 11:10:48;;;;;;;9.82;7.05;;;32.00;1.00;;;;;;5173011;23;20226;-93
2023/07/07 11:22:23;;;;;;;8.88;7.95;;;29.90;1.50;;;;;;4997704;28;20200;-94
2023/07/07 11:24:55;;;;;;;8.55;7.53;;;29.70;1.00;;;;;;5848456;23;21234;-90
2023/07/07 11:35:20;;;;;;;7.05;6.20;;;29.30;1.30;;;;;;5005320;28;20200;-92
2023/07/07 11:44:05;;;;;;;9.75;7.15;;;29.20;1.00;;;;;;5007023;28;20531;-92
2023/07/07 11:49:43;;;;;;;9.10;8.00;;;29.20;2.70;;;;;;5005266;28;20219;-88
2023/07/07 11:55:28;;;;;;;7.75;6.28;;;29.30;1.90;;;;;;5016254;28;20203;-88
2023/07/07 12:00:54;;;;;;;8.93;7.18;;;29.20;2.80;;;;;;5015115;28;20196;-88
2023/07/07 12:03:48;;;;;;;7.85;7.05;;;29.10;3.50;;;;;;5016781;28;20192;-89
2023/07/07 12:06:22;;;;;;;9.32;7.35;;;29.10;1.10;;;;;;5004388;28;20206;-91
2023/07/07 12:08:59;;;;;;;10.65;7.57;;;29.10;1.00;;;;;;5007284;28;20219;-92
2023/07/07 12:11:35;;;;;;;9.50;7.28;;;28.80;1.40;;;;;;5324355;23;20325;-91
2023/07/07 12:19:57;;;;;;;11.27;7.10;;;28.80;1.00;;;;;;5013802;28;20191;-91
2023/07/07 12:22:40;;;;;;;9.65;8.00;;;28.70;1.00;;;;;;5010087;28;20179;-91
2023/07/07 12:25:20;;;;;;;10.30;8.00;;;28.70;1.00;;;;;;4998672;28;21134;-91
2023/07/07 12:30:33;;;;;;;9.48;7.90;;;28.70;1.00;;;;;;5016307;28;20266;-91
2023/07/07 12:46:06;;;;;;;10.48;8.10;;;29.00;1.00;;;;;;5095427;23;20226;-93
2023/07/07 12:48:33;;;;;;;10.18;7.53;;;28.90;1.00;;;;;;5027967;28;20226;-93
2023/07/07 12:58:56;;;;;;;10.73;7.82;;;28.50;1.40;;;;;;5346624;23;20235;-91
2023/07/07 13:01:32;;;;;;;9.68;8.13;;;28.60;1.70;;;;;;5007933;28;20238;-91
2023/07/07 13:04:23;;;;;;;10.85;8.10;;;28.60;1.20;;;;;;5005873;28;20296;-91
2023/07/07 13:07:06;;;;;;;9.93;7.65;;;28.60;1.00;;;;;;5006834;28;20195;-88
2023/07/07 13:12:46;;;;;;;9.57;7.90;;;28.80;2.70;;;;;;5164028;22;20260;-92
2023/07/07 13:15:18;;;;;;;9.65;7.82;;;28.80;2.20;;;;;;5077486;23;20262;-90
2023/07/07 13:17:47;;;;;;;8.52;7.63;;;28.80;1.60;;;;;;4992849;28;20306;-90
2023/07/07 13:20:17;;;;;;;10.35;8.00;;;29.00;1.00;;;;;;4982522;28;20204;-90
2023/07/07 13:22:48;;;;;;;9.50;7.57;;;29.00;1.00;;;;;;4981564;28;20288;-90
2023/07/07 18:16:54;;;;;;;12.05;6.53;;;25.60;5.20;;;;;;6220472;23;20209;-92
2023/07/07 18:19:21;;;;;;;9.43;6.30;;;25.50;5.40;;;;;;6170043;23;20725;-89
2023/07/07 18:21:48;;;;;;;11.00;6.43;;;25.40;5.70;;;;;;6224822;23;20184;-90
2023/07/07 18:24:18;;;;;;;9.55;6.72;;;25.40;5.70;;;;;;6203209;23;20185;-92
2023/07/07 18:26:45;;;;;;;7.60;5.97;;;25.30;6.20;;;;;;6211540;23;20194;-90
2023/07/07 18:29:14;;;;;;;8.18;6.63;;;25.10;7.00;;;;;;6184386;23;20205;-91
2023/07/07 18:31:43;;;;;;;7.07;5.78;;;25.10;7.10;;;;;;6234331;23;20182;-92
2023/07/07 19:38:38;;;;;;;12.18;7.43;;;22.20;13.20;;;;;;6123053;23;20235;-90
2023/07/07 19:54:59;;;;;;;10.65;6.85;;;21.60;13.40;;;;;;6009277;23;20183;-93
2023/07/07 20:51:55;;;;;;;10.38;7.40;;;19.90;20.90;;;;;;6125284;23;20231;-94
2023/07/07 20:54:22;;;;;;;13.70;8.02;;;19.70;20.50;;;;;;6099628;23;20190;-93
2023/07/07 20:56:49;;;;;;;14.35;7.57;;;19.70;20.70;;;;;;6100455;23;20648;-93
2023/07/07 20:59:21;;;;;;;9.85;7.55;;;19.60;21.00;;;;;;6099398;23;20180;-94
2023/07/07 21:01:50;;;;;;;12.07;7.38;;;19.50;21.40;;;;;;6109563;23;20310;-92
2023/07/07 21:04:17;;;;;;;11.85;7.70;;;19.50;21.90;;;;;;6108572;23;20194;-93
2023/07/07 21:06:44;;;;;;;10.02;7.53;;;19.40;21.80;;;;;;6077940;23;20235;-93
2023/07/07 21:09:12;;;;;;;12.70;7.97;;;19.40;23.00;;;;;;6076492;23;20758;-92
2023/07/07 21:11:39;;;;;;;11.68;8.00;;;19.30;23.80;;;;;;6126915;23;20514;-95
2023/07/07 21:16:49;;;;;;;13.07;8.05;;;19.30;22.20;;;;;;6111769;23;20175;-94
2023/07/07 21:19:16;;;;;;;13.15;7.35;;;19.30;22.30;;;;;;6099929;23;20189;-94
2023/07/07 21:24:25;;;;;;;14.30;8.13;;;19.30;22.40;;;;;;6091494;23;20172;-94
2023/07/07 21:26:52;;;;;;;10.27;7.38;;;19.20;22.10;;;;;;6096207;23;20782;-94
2023/07/07 21:29:19;;;;;;;11.48;7.45;;;19.10;22.90;;;;;;6098257;23;20200;-94
2023/07/07 21:31:46;;;;;;;11.32;7.78;;;19.10;23.60;;;;;;6072409;23;20177;-94
2023/07/07 21:34:14;;;;;;;13.98;8.07;;;19.00;23.30;;;;;;6072607;23;20465;-94
2023/07/07 21:39:42;;;;;;;10.20;7.43;;;18.90;23.40;;;;;;6073931;23;20180;-93
2023/07/07 21:44:52;;;;;;;12.98;7.78;;;18.80;25.20;;;;;;6075195;23;20180;-93
2023/07/07 21:50:01;;;;;;;12.65;7.90;;;18.70;25.60;;;;;;6097147;23;20255;-95
2023/07/07 21:52:28;;;;;;;14.68;8.30;;;18.60;27.00;;;;;;6097934;23;20542;-94
2023/07/07 21:54:55;;;;;;;12.77;7.93;;;18.50;26.40;;;;;;6097265;23;20168;-93
2023/07/07 22:03:24;;;;;;;10.63;7.07;;;18.30;28.00;;;;;;6079860;23;20224;-95
2023/07/07 22:05:53;;;;;;;10.02;7.05;;;18.20;28.60;;;;;;6072679;23;20232;-95
2023/07/07 22:08:20;;;;;;;11.25;7.63;;;18.20;28.60;;;;;;6105469;23;20209;-95
2023/07/07 22:13:32;;;;;;;12.20;7.53;;;18.10;30.50;;;;;;6104387;23;20177;-95
2023/07/07 22:15:59;;;;;;;11.00;7.88;;;18.00;30.40;;;;;;6081297;23;20184;-95
2023/07/07 22:18:26;;;;;;;10.40;8.57;;;18.00;30.40;;;;;;6104340;23;20688;-93
2023/07/07 22:24:13;;;;;;;14.23;8.10;;;17.90;30.90;;;;;;5987978;24;20203;-95
2023/07/07 22:26:42;;;;;;;12.73;8.18;;;17.90;30.30;;;;;;5967163;24;20535;-95
2023/07/07 22:31:54;;;;;;;10.20;8.15;;;17.80;30.30;;;;;;6071064;23;20176;-95
2023/07/07 22:34:22;;;;;;;12.30;8.27;;;17.80;31.50;;;;;;6107841;23;20240;-95
2023/07/07 22:39:56;;;;;;;11.35;8.30;;;17.80;32.80;;;;;;6053811;23;20693;-95
2023/07/07 22:42:22;;;;;;;12.50;8.43;;;17.80;30.30;;;;;;6106959;23;20377;-96
2023/07/07 22:44:49;;;;;;;12.02;8.80;;;17.80;31.30;;;;;;6076153;23;20189;-94
2023/07/07 22:47:16;;;;;;;11.65;8.48;;;17.80;30.20;;;;;;6077117;23;20177;-96
2023/07/07 22:49:43;;;;;;;13.77;8.82;;;17.70;32.90;;;;;;6079380;23;20197;-94
2023/07/07 22:54:57;;;;;;;10.02;7.85;;;17.70;33.00;;;;;;6089057;23;20233;-94
2023/07/07 22:57:26;;;;;;;12.43;8.55;;;17.70;33.40;;;;;;6077488;23;20264;-94
2023/07/07 22:59:55;;;;;;;11.88;9.05;;;17.70;32.30;;;;;;6076660;23;20225;-96
2023/07/07 23:02:22;;;;;;;12.18;8.82;;;17.70;32.70;;;;;;6099940;23;20178;-94
2023/07/07 23:04:49;;;;;;;9.35;7.47;;;17.70;32.40;;;;;;6076309;23;20241;-95
2023/07/07 23:07:18;;;;;;;10.15;7.88;;;17.70;30.80;;;;;;6084052;23;20180;-94
2023/07/07 23:12:27;;;;;;;10.77;8.65;;;17.70;31.20;;;;;;6077937;23;20244;-93
2023/07/07 23:14:54;;;;;;;13.57;9.60;;;17.80;34.50;;;;;;6077965;23;20260;-95
2023/07/07 23:20:22;;;;;;;11.68;7.90;;;17.80;34.50;;;;;;6077445;23;20173;-96
2023/07/07 23:25:56;;;;;;;14.38;8.07;;;17.70;33.90;;;;;;5993513;23;20263;-94
2023/07/07 23:28:27;;;;;;;11.02;7.55;;;17.60;34.60;;;;;;6078111;23;20226;-95
2023/07/07 23:33:37;;;;;;;10.45;7.20;;;17.50;35.90;;;;;;6080158;23;20169;-95
2023/07/07 23:41:43;;;;;;;10.85;6.85;;;17.50;38.70;;;;;;6052660;23;20548;-95
2023/07/07 23:44:11;;;;;;;10.27;7.20;;;17.50;38.20;;;;;;6082157;23;20181;-94
2023/07/07 23:46:38;;;;;;;9.52;7.07;;;17.60;40.00;;;;;;6098726;23;20178;-94
2023/07/07 23:57:43;;;;;;;14.07;7.72;;;17.60;39.80;;;;;;6043725;23;20184;-94
